TimeCDT,TemperatureF,Dew PointF,Humidity,Sea Level PressureIn,VisibilityMPH,Wind Direction,Wind SpeedMPH,Gust SpeedMPH,PrecipitationIn,Events,Conditions,WindDirDegrees,DateUTC
12:15 AM,37.4,33.8,87,30.10,10.0,NNW,5.8,-,N/A,,Overcast,330,2013-04-24 05:15:00
12:35 AM,37.4,33.8,87,30.10,10.0,NNW,5.8,-,N/A,,Overcast,340,2013-04-24 05:35:00
12:55 AM,37.4,33.8,87,30.11,10.0,North,5.8,-,N/A,,Overcast,350,2013-04-24 05:55:00
1:15 AM,37.4,33.8,87,30.12,10.0,NNW,4.6,-,N/A,,Overcast,330,2013-04-24 06:15:00
1:35 AM,37.4,33.8,87,30.12,10.0,NNW,3.5,-,N/A,,Overcast,330,2013-04-24 06:35:00
1:55 AM,37.4,33.8,87,30.12,10.0,NW,4.6,-,N/A,,Overcast,320,2013-04-24 06:55:00
2:15 AM,37.4,33.8,87,30.13,10.0,NW,4.6,-,N/A,,Overcast,320,2013-04-24 07:15:00
2:35 AM,37.4,33.8,87,30.12,10.0,NW,5.8,-,N/A,,Overcast,320,2013-04-24 07:35:00
2:55 AM,37.4,33.8,87,30.12,10.0,NNW,5.8,-,N/A,,Overcast,330,2013-04-24 07:55:00
3:15 AM,37.4,33.8,87,30.12,10.0,NW,8.1,-,N/A,,Overcast,320,2013-04-24 08:15:00
3:35 AM,37.4,33.8,87,30.13,10.0,NW,8.1,-,N/A,,Mostly Cloudy,320,2013-04-24 08:35:00
3:55 AM,37.4,33.8,87,30.14,8.0,NNW,8.1,-,N/A,,Overcast,330,2013-04-24 08:55:00
4:15 AM,37.4,32.0,81,30.13,10.0,North,6.9,-,N/A,,Mostly Cloudy,360,2013-04-24 09:15:00
4:35 AM,37.4,32.0,81,30.14,10.0,NNW,9.2,-,N/A,,Overcast,340,2013-04-24 09:35:00
5:15 AM,35.6,32.0,87,30.18,9.0,NNW,5.8,-,N/A,,Overcast,330,2013-04-24 10:15:00
5:35 AM,35.6,30.2,81,30.18,10.0,NW,8.1,-,N/A,,Overcast,320,2013-04-24 10:35:00
5:55 AM,35.6,30.2,81,30.19,10.0,NNW,4.6,-,N/A,,Overcast,330,2013-04-24 10:55:00
6:15 AM,33.8,30.2,87,30.19,10.0,NNW,4.6,-,N/A,,Overcast,330,2013-04-24 11:15:00
6:35 AM,35.6,32.0,87,30.20,10.0,NNW,3.5,-,N/A,,Overcast,330,2013-04-24 11:35:00
6:55 AM,35.6,32.0,87,30.21,10.0,WNW,5.8,-,N/A,,Overcast,300,2013-04-24 11:55:00
7:15 AM,35.6,32.0,87,30.21,10.0,NW,4.6,-,N/A,,Overcast,310,2013-04-24 12:15:00
7:35 AM,35.6,30.2,81,30.22,10.0,WNW,6.9,-,N/A,,Overcast,290,2013-04-24 12:35:00
7:55 AM,35.6,32.0,87,30.23,10.0,WNW,5.8,-,N/A,,Overcast,290,2013-04-24 12:55:00
8:15 AM,35.6,32.0,87,30.24,10.0,NW,5.8,-,N/A,,Overcast,310,2013-04-24 13:15:00
8:35 AM,35.6,32.0,87,30.25,10.0,NW,5.8,-,N/A,,Overcast,310,2013-04-24 13:35:00
8:55 AM,37.4,32.0,81,30.25,10.0,NW,5.8,-,N/A,,Overcast,320,2013-04-24 13:55:00
9:15 AM,37.4,33.8,87,30.25,10.0,NNW,8.1,-,N/A,,Overcast,330,2013-04-24 14:15:00
9:35 AM,39.2,30.2,70,30.24,10.0,West,10.4,-,N/A,,Overcast,280,2013-04-24 14:35:00
9:55 AM,37.4,30.2,75,30.24,10.0,WNW,6.9,-,N/A,,Overcast,290,2013-04-24 14:55:00
10:15 AM,39.2,28.4,65,30.23,10.0,WNW,9.2,17.3,N/A,,Mostly Cloudy,300,2013-04-24 15:15:00
10:35 AM,39.2,28.4,65,30.23,10.0,West,9.2,-,N/A,,Mostly Cloudy,280,2013-04-24 15:35:00
10:55 AM,41.0,30.2,65,30.23,10.0,NNW,8.1,-,N/A,,Mostly Cloudy,330,2013-04-24 15:55:00
11:15 AM,42.8,28.4,57,30.24,10.0,NNW,13.8,18.4,N/A,,Clear,340,2013-04-24 16:15:00
11:35 AM,42.8,30.2,61,30.24,10.0,NW,6.9,-,N/A,,Clear,310,2013-04-24 16:35:00
11:55 AM,44.6,28.4,53,30.24,10.0,West,11.5,-,N/A,,Clear,270,2013-04-24 16:55:00
12:15 PM,44.6,28.4,53,30.25,10.0,WNW,4.6,-,N/A,,Clear,290,2013-04-24 17:15:00
12:35 PM,46.4,26.6,46,30.25,10.0,West,10.4,-,N/A,,Clear,280,2013-04-24 17:35:00
12:55 PM,46.4,26.6,46,30.25,10.0,NW,9.2,-,N/A,,Clear,320,2013-04-24 17:55:00
1:15 PM,46.4,26.6,46,30.24,10.0,NNW,6.9,-,N/A,,Clear,330,2013-04-24 18:15:00
1:35 PM,46.4,24.8,43,30.24,10.0,WNW,9.2,-,N/A,,Clear,300,2013-04-24 18:35:00
1:55 PM,48.2,24.8,40,30.24,10.0,West,6.9,-,N/A,,Clear,270,2013-04-24 18:55:00
2:15 PM,48.2,26.6,43,30.24,10.0,West,11.5,16.1,N/A,,Clear,260,2013-04-24 19:15:00
2:35 PM,48.2,24.8,40,30.24,10.0,West,9.2,-,N/A,,Clear,280,2013-04-24 19:35:00
2:55 PM,50.0,26.6,40,30.24,10.0,WSW,10.4,-,N/A,,Clear,250,2013-04-24 19:55:00
3:15 PM,50.0,24.8,37,30.24,10.0,WSW,9.2,-,N/A,,Clear,250,2013-04-24 20:15:00
3:35 PM,51.8,24.8,35,30.24,10.0,West,9.2,16.1,N/A,,Clear,260,2013-04-24 20:35:00
3:55 PM,51.8,23.0,33,30.24,10.0,West,11.5,-,N/A,,Clear,270,2013-04-24 20:55:00
4:15 PM,51.8,23.0,33,30.23,10.0,NW,5.8,-,N/A,,Clear,310,2013-04-24 21:15:00
4:35 PM,51.8,21.2,30,30.23,10.0,NW,6.9,-,N/A,,Clear,320,2013-04-24 21:35:00
4:55 PM,53.6,24.8,33,30.23,10.0,WSW,8.1,-,N/A,,Clear,250,2013-04-24 21:55:00
5:15 PM,53.6,23.0,30,30.23,10.0,WSW,5.8,-,N/A,,Partly Cloudy,250,2013-04-24 22:15:00
5:35 PM,53.6,24.8,33,30.23,10.0,West,8.1,-,N/A,,Partly Cloudy,280,2013-04-24 22:35:00
5:55 PM,53.6,23.0,30,30.23,10.0,West,9.2,-,N/A,,Clear,280,2013-04-24 22:55:00
6:15 PM,51.8,23.0,33,30.23,10.0,NNW,5.8,-,N/A,,Clear,330,2013-04-24 23:15:00
6:35 PM,51.8,24.8,35,30.24,10.0,West,10.4,-,N/A,,Clear,270,2013-04-24 23:35:00
6:55 PM,51.8,21.2,30,30.23,10.0,WNW,4.6,-,N/A,,Clear,300,2013-04-24 23:55:00
7:15 PM,50.0,21.2,32,30.23,10.0,WNW,4.6,-,N/A,,Clear,300,2013-04-25 00:15:00
7:35 PM,50.0,21.2,32,30.24,10.0,Calm,Calm,-,N/A,,Clear,0,2013-04-25 00:35:00
7:55 PM,48.2,24.8,40,30.24,10.0,West,3.5,-,N/A,,Clear,280,2013-04-25 00:55:00
8:15 PM,48.2,26.6,43,30.25,10.0,West,3.5,-,N/A,,Clear,260,2013-04-25 01:15:00
8:35 PM,48.2,24.8,40,30.25,10.0,West,4.6,-,N/A,,Clear,260,2013-04-25 01:35:00
8:55 PM,48.2,24.8,40,30.26,10.0,WSW,4.6,-,N/A,,Clear,240,2013-04-25 01:55:00
9:55 PM,44.6,26.6,49,30.28,10.0,WSW,3.5,-,N/A,,Clear,250,2013-04-25 02:55:00
10:15 PM,42.8,28.4,57,30.29,10.0,WSW,3.5,-,N/A,,Clear,250,2013-04-25 03:15:00
10:35 PM,41.0,28.4,61,30.28,10.0,SW,4.6,-,N/A,,Clear,230,2013-04-25 03:35:00
10:55 PM,37.4,28.4,70,30.29,10.0,Calm,Calm,-,N/A,,Clear,0,2013-04-25 03:55:00
11:15 PM,37.4,26.6,65,30.29,10.0,WSW,3.5,-,N/A,,Clear,250,2013-04-25 04:15:00
11:35 PM,39.2,28.4,65,30.30,10.0,SSW,3.5,-,N/A,,Clear,200,2013-04-25 04:35:00
11:55 PM,39.2,28.4,65,30.29,10.0,SSW,4.6,-,N/A,,Clear,200,2013-04-25 04:55:00